Mount Washington, Kentucky
Current Conditions -  °F | °C
As of 1:56 PM on Thursday 18 Dec 2014 (Local Time) from KSDF Reporting Station
Haze Haze  
Wind Chill: 33°   Ceiling: 6500
Heat Index: 33°   Visibility: 6mi
Dew Point: 23°   Wind: 0mph
Humidity: 66%   Direction: NA
Pressure: 30.23"   Gusts: NA
Location:  38.04°N, 85.54°W
Report Text: KSDF 181856Z 00000KT 6SM HZ SCT020 OVC065 01/M05 A3023 RMK AO2 SLP242 T00061050
Loading
Personal Weather Stations






























Interactive Weather Map New forecast layout! Learn more

10-Day Weather Forecast

Advertisements
Track Severe Weather on mobile